Time;durP1;ratioP1;P1;durP2;ratioP2;P2;SDS_P1;SDS_P2;PMS_P1;PMS_P2;Temp;Humidity;BMP_temperature;BMP_pressure;BME280_temperature;BME280_humidity;BME280_pressure;Samples;Min_cycle;Max_cycle;Signal;HPM_P1;HPM_P2
2022/05/13 00:00:06;;;;;;;6.93;2.90;;;20.70;16.30;;;;;;5066366;28;20398;-70
2022/05/13 00:02:32;;;;;;;6.53;3.00;;;20.70;14.90;;;;;;5048668;28;20497;-71
2022/05/13 00:04:58;;;;;;;8.10;2.90;;;20.70;16.40;;;;;;5067982;28;20595;-70
2022/05/13 00:07:23;;;;;;;7.07;2.90;;;20.70;17.80;;;;;;5067495;28;20568;-70
2022/05/13 00:10:00;;;;;;;4.37;2.83;;;20.50;18.00;;;;;;5067725;28;20160;-71
2022/05/13 00:12:31;;;;;;;7.87;3.17;;;20.50;16.10;;;;;;5067044;28;20191;-69
2022/05/13 00:14:58;;;;;;;7.87;3.10;;;20.40;17.80;;;;;;5066077;28;20501;-70
2022/05/13 00:17:24;;;;;;;7.10;3.10;;;20.40;15.30;;;;;;5065344;28;20434;-69
2022/05/13 00:19:50;;;;;;;5.77;2.83;;;20.50;16.50;;;;;;5066324;28;21115;-69
2022/05/13 00:22:15;;;;;;;8.93;3.00;;;20.40;16.20;;;;;;5048051;28;20459;-70
2022/05/13 00:24:41;;;;;;;8.83;3.10;;;20.40;16.30;;;;;;5065968;28;20920;-69
2022/05/13 00:27:07;;;;;;;6.87;3.27;;;20.40;18.00;;;;;;5067447;28;20282;-70
2022/05/13 00:29:33;;;;;;;5.60;2.70;;;20.40;18.40;;;;;;5067379;28;20314;-69
2022/05/13 00:31:59;;;;;;;4.80;2.87;;;20.30;17.40;;;;;;5059152;28;20608;-69
2022/05/13 00:34:24;;;;;;;9.97;3.47;;;20.20;19.70;;;;;;5047195;28;20531;-69
2022/05/13 00:36:51;;;;;;;6.33;3.20;;;20.20;18.30;;;;;;5064461;28;20265;-70
2022/05/13 00:39:17;;;;;;;6.03;3.07;;;20.20;19.60;;;;;;5067888;28;20390;-69
2022/05/13 00:41:42;;;;;;;7.20;3.00;;;20.30;21.40;;;;;;5047736;28;20418;-70
2022/05/13 00:44:08;;;;;;;6.60;3.10;;;20.10;19.40;;;;;;5067247;28;20294;-70
2022/05/13 00:46:34;;;;;;;4.10;2.80;;;20.10;20.70;;;;;;5065220;28;20388;-70
2022/05/13 00:49:03;;;;;;;6.33;2.70;;;20.10;20.20;;;;;;5067613;28;20646;-70
2022/05/13 00:51:32;;;;;;;10.70;3.00;;;20.00;19.60;;;;;;5066248;28;20475;-70
2022/05/13 00:53:59;;;;;;;8.63;3.07;;;20.10;20.70;;;;;;5066707;28;20414;-70
2022/05/13 00:56:25;;;;;;;4.70;3.00;;;19.90;20.20;;;;;;5065362;28;20780;-70
2022/05/13 00:58:56;;;;;;;7.90;2.67;;;19.90;21.60;;;;;;5070906;28;20406;-70
2022/05/13 01:01:22;;;;;;;5.43;2.97;;;19.90;18.80;;;;;;5051245;28;20463;-69
2022/05/13 01:03:49;;;;;;;8.70;3.07;;;19.90;20.20;;;;;;5071785;28;20406;-70
2022/05/13 01:06:21;;;;;;;8.90;3.50;;;19.90;21.00;;;;;;5052446;28;20480;-70
2022/05/13 01:08:47;;;;;;;6.90;3.03;;;19.90;19.60;;;;;;5071450;28;20864;-69
2022/05/13 01:11:17;;;;;;;5.63;2.83;;;19.80;20.10;;;;;;5069561;28;20924;-69
2022/05/13 01:13:45;;;;;;;7.27;3.13;;;19.90;19.00;;;;;;5069566;28;20457;-70
2022/05/13 01:16:11;;;;;;;7.17;2.90;;;19.90;19.40;;;;;;5068565;28;20422;-68
2022/05/13 01:18:40;;;;;;;10.03;3.10;;;19.50;19.00;;;;;;5070343;28;20437;-70
2022/05/13 01:21:08;;;;;;;5.37;2.93;;;19.80;19.40;;;;;;5051776;28;20241;-69
2022/05/13 01:23:37;;;;;;;6.20;3.20;;;19.80;22.00;;;;;;5070310;28;20402;-69
2022/05/13 01:26:06;;;;;;;7.83;3.20;;;19.80;23.80;;;;;;5062774;28;20894;-70
2022/05/13 01:28:35;;;;;;;7.67;3.23;;;19.80;22.40;;;;;;5071143;28;20446;-70
2022/05/13 01:31:05;;;;;;;6.23;3.20;;;19.80;23.90;;;;;;5069837;28;20489;-68
2022/05/13 01:33:31;;;;;;;4.80;3.03;;;19.80;23.50;;;;;;5071249;28;20437;-69
2022/05/13 01:35:59;;;;;;;8.60;3.07;;;19.80;23.20;;;;;;5069952;28;20426;-70
2022/05/13 01:38:30;;;;;;;5.90;3.10;;;19.80;25.30;;;;;;5069624;28;20419;-69
2022/05/13 01:40:56;;;;;;;7.50;2.70;;;19.70;22.50;;;;;;5068069;28;20422;-69
2022/05/13 01:43:22;;;;;;;7.43;3.57;;;19.70;24.50;;;;;;5068994;28;20421;-70
2022/05/13 01:45:47;;;;;;;6.17;3.27;;;19.60;22.80;;;;;;5069712;28;20260;-69
2022/05/13 01:48:13;;;;;;;5.50;2.93;;;19.60;24.30;;;;;;5070101;28;20531;-69
2022/05/13 01:50:39;;;;;;;10.00;3.30;;;19.60;25.70;;;;;;5068425;28;20210;-70
2022/05/13 01:53:06;;;;;;;7.37;3.60;;;19.60;25.80;;;;;;5051954;28;20222;-70
2022/05/13 01:55:32;;;;;;;6.60;3.10;;;19.60;23.90;;;;;;5068411;28;20524;-68
2022/05/13 01:57:58;;;;;;;9.00;3.27;;;19.70;23.80;;;;;;5070652;28;20514;-70
2022/05/13 02:00:24;;;;;;;5.70;3.40;;;19.60;28.10;;;;;;5069933;28;20247;-70
2022/05/13 02:05:34;;;;;;;6.00;3.50;;;19.50;25.50;;;;;;5069913;28;20601;-70
2022/05/13 02:08:00;;;;;;;7.23;3.70;;;19.50;28.70;;;;;;5068941;28;20450;-70
2022/05/13 02:10:25;;;;;;;6.70;3.17;;;19.40;26.70;;;;;;5068509;28;20200;-69
2022/05/13 02:12:51;;;;;;;6.30;3.60;;;19.30;41.50;;;;;;5068504;28;20241;-70
2022/05/13 02:15:17;;;;;;;10.40;3.47;;;19.30;36.30;;;;;;5070423;28;20583;-70
2022/05/13 02:17:43;;;;;;;5.83;3.80;;;19.30;36.00;;;;;;5067139;28;20207;-70
2022/05/13 02:20:10;;;;;;;7.80;3.53;;;19.30;38.00;;;;;;5068142;28;20654;-70
2022/05/13 02:22:36;;;;;;;10.67;3.63;;;19.30;37.30;;;;;;5069323;28;20188;-70
2022/05/13 02:25:02;;;;;;;9.47;3.77;;;19.30;36.80;;;;;;5068209;28;20418;-70
2022/05/13 02:27:28;;;;;;;8.43;3.30;;;19.30;38.90;;;;;;5035107;28;20459;-70
2022/05/13 02:29:54;;;;;;;5.33;3.40;;;19.30;36.30;;;;;;5069891;28;20480;-69
2022/05/13 02:32:20;;;;;;;6.93;3.70;;;19.30;40.80;;;;;;5049829;28;20195;-70
2022/05/13 02:34:46;;;;;;;10.90;3.93;;;19.20;39.80;;;;;;5052511;28;20173;-70
2022/05/13 02:37:11;;;;;;;7.90;3.53;;;19.20;41.50;;;;;;5069106;28;20508;-70
2022/05/13 02:39:37;;;;;;;5.63;3.10;;;19.20;45.20;;;;;;5068664;28;20184;-68
2022/05/13 02:42:03;;;;;;;6.30;3.20;;;19.20;41.90;;;;;;5067052;28;20251;-70
2022/05/13 02:44:29;;;;;;;7.37;3.33;;;19.10;41.70;;;;;;5067369;28;20189;-70
2022/05/13 02:46:54;;;;;;;10.50;3.60;;;19.10;44.10;;;;;;5068273;28;20441;-69
2022/05/13 02:49:20;;;;;;;6.77;4.00;;;19.10;36.50;;;;;;5051886;28;20337;-70
2022/05/13 02:51:46;;;;;;;11.10;3.50;;;19.10;44.60;;;;;;5050010;28;20521;-70
2022/05/13 02:54:12;;;;;;;7.13;3.40;;;19.10;40.30;;;;;;5068165;28;20306;-70
2022/05/13 02:56:38;;;;;;;7.27;3.47;;;19.10;36.40;;;;;;5067056;28;20438;-70
2022/05/13 02:59:04;;;;;;;5.23;3.50;;;19.10;40.60;;;;;;5068855;28;20958;-69
2022/05/13 03:01:32;;;;;;;6.17;3.43;;;19.10;45.50;;;;;;5066198;28;20406;-69
2022/05/13 03:03:58;;;;;;;6.43;3.47;;;;;;;;;;5068288;28;20402;-70
2022/05/13 03:06:24;;;;;;;7.10;3.53;;;19.10;33.80;;;;;;5068619;28;20591;-70
2022/05/13 03:08:51;;;;;;;7.00;3.80;;;19.10;37.20;;;;;;5068259;28;20545;-70
2022/05/13 03:11:18;;;;;;;6.27;3.10;;;19.20;37.10;;;;;;5066437;28;20355;-69
2022/05/13 03:13:43;;;;;;;5.97;3.70;;;19.10;36.70;;;;;;5068841;28;20407;-69
2022/05/13 03:16:15;;;;;;;5.50;3.70;;;19.00;36.20;;;;;;5065764;28;20476;-69
2022/05/13 03:18:40;;;;;;;7.40;3.50;;;19.30;35.40;;;;;;5069351;28;20541;-70
2022/05/13 03:21:07;;;;;;;7.10;3.50;;;19.00;37.00;;;;;;5049267;28;20441;-69
2022/05/13 03:23:33;;;;;;;7.20;3.50;;;19.10;39.30;;;;;;5062596;28;20249;-70
2022/05/13 03:25:59;;;;;;;6.10;3.60;;;19.10;39.40;;;;;;5067881;28;20474;-69
2022/05/13 03:28:25;;;;;;;12.80;3.37;;;19.10;37.80;;;;;;5052596;28;20676;-70
2022/05/13 03:30:51;;;;;;;6.00;3.27;;;19.00;45.00;;;;;;5046075;28;20172;-69
2022/05/13 03:33:18;;;;;;;5.10;3.40;;;19.00;45.10;;;;;;5059407;28;20192;-70
2022/05/13 03:35:43;;;;;;;6.50;3.60;;;19.10;43.50;;;;;;5066685;28;20505;-70
2022/05/13 03:38:09;;;;;;;7.87;3.63;;;19.10;45.60;;;;;;5050480;28;20414;-70
2022/05/13 03:40:36;;;;;;;8.17;3.13;;;19.10;45.40;;;;;;5050338;28;20343;-72
2022/05/13 03:43:03;;;;;;;7.33;3.67;;;19.10;44.90;;;;;;5060160;28;20667;-69
2022/05/13 03:45:30;;;;;;;11.47;4.10;;;;;;;;;;5066250;28;20513;-70
2022/05/13 03:47:56;;;;;;;7.57;3.97;;;19.10;43.40;;;;;;5067784;28;20466;-70
2022/05/13 03:50:22;;;;;;;7.50;3.70;;;19.10;45.20;;;;;;5066561;28;20488;-69
2022/05/13 03:52:47;;;;;;;6.33;4.00;;;19.10;42.90;;;;;;5066083;28;20213;-69
2022/05/13 03:55:14;;;;;;;6.87;3.63;;;19.10;45.10;;;;;;5068773;28;20191;-70
2022/05/13 03:57:40;;;;;;;5.83;3.40;;;19.10;43.20;;;;;;5067730;28;20279;-70
2022/05/13 04:00:07;;;;;;;6.93;3.90;;;19.00;45.50;;;;;;5067989;28;20884;-69
2022/05/13 04:02:32;;;;;;;5.93;3.70;;;19.00;45.50;;;;;;5065349;28;20502;-70
2022/05/13 04:10:27;;;;;;;6.30;3.30;;;19.00;45.60;;;;;;5067958;28;20977;-70
2022/05/13 04:18:21;;;;;;;7.03;3.87;;;19.00;45.70;;;;;;5067385;28;20412;-70
2022/05/13 04:20:47;;;;;;;8.17;3.63;;;18.90;45.40;;;;;;5067221;28;20411;-69
2022/05/13 04:23:13;;;;;;;6.53;3.63;;;19.00;45.50;;;;;;5067513;28;20173;-69
2022/05/13 04:25:39;;;;;;;10.70;3.83;;;19.00;43.40;;;;;;5049650;28;20177;-70
2022/05/13 04:28:04;;;;;;;6.80;3.50;;;19.00;45.60;;;;;;5067813;28;20686;-70
2022/05/13 04:30:30;;;;;;;10.00;3.87;;;19.00;45.50;;;;;;5065167;28;20176;-70
2022/05/13 04:32:55;;;;;;;5.20;3.43;;;19.00;45.60;;;;;;5069832;28;20180;-70
2022/05/13 04:35:21;;;;;;;7.77;3.90;;;19.00;45.50;;;;;;5070337;28;20267;-68
2022/05/13 04:37:47;;;;;;;8.40;3.63;;;19.00;45.50;;;;;;5053690;28;20223;-70
2022/05/13 04:40:13;;;;;;;7.47;4.70;;;18.90;45.60;;;;;;5071766;28;20222;-70
2022/05/13 04:42:50;;;;;;;10.57;4.00;;;18.90;45.50;;;;;;5069665;28;20165;-70
2022/05/13 04:45:24;;;;;;;4.73;3.53;;;18.90;45.40;;;;;;5070766;28;20167;-70
2022/05/13 04:50:40;;;;;;;8.50;3.70;;;19.00;45.60;;;;;;5070665;28;20414;-69
2022/05/13 04:53:06;;;;;;;7.93;3.87;;;19.00;45.60;;;;;;5069279;28;20875;-70
2022/05/13 04:55:33;;;;;;;6.63;3.40;;;19.10;45.60;;;;;;5070888;28;20421;-70
2022/05/13 04:57:58;;;;;;;7.67;4.03;;;19.00;45.60;;;;;;5053686;28;20463;-70
2022/05/13 05:00:24;;;;;;;7.33;3.80;;;19.00;45.60;;;;;;5070841;28;20415;-70
2022/05/13 05:02:49;;;;;;;6.70;3.77;;;19.00;45.60;;;;;;5068032;28;20187;-69
2022/05/13 05:05:16;;;;;;;9.20;3.80;;;19.00;45.60;;;;;;5070622;28;20259;-69
2022/05/13 05:07:41;;;;;;;6.33;3.83;;;19.10;45.60;;;;;;5070560;28;20214;-68
2022/05/13 05:10:07;;;;;;;6.30;3.37;;;19.10;45.60;;;;;;5053318;28;20407;-69
2022/05/13 05:12:33;;;;;;;5.00;3.53;;;19.10;45.60;;;;;;5070598;28;20169;-70
2022/05/13 05:14:58;;;;;;;5.43;3.33;;;19.10;45.60;;;;;;5069679;28;20410;-69
2022/05/13 05:17:24;;;;;;;10.47;3.47;;;19.20;45.70;;;;;;5070013;28;20188;-70
2022/05/13 05:19:49;;;;;;;8.00;3.30;;;19.20;45.70;;;;;;5071492;28;20177;-70
2022/05/13 05:22:15;;;;;;;7.27;3.70;;;19.20;45.80;;;;;;5069927;28;20183;-70
2022/05/13 05:24:42;;;;;;;10.00;4.10;;;19.30;45.80;;;;;;5070762;28;20247;-69
2022/05/13 05:27:09;;;;;;;5.70;3.30;;;19.00;45.50;;;;;;5070791;28;20754;-70
2022/05/13 05:29:36;;;;;;;5.87;3.33;;;19.40;45.90;;;;;;5069130;28;20537;-69
2022/05/13 05:32:02;;;;;;;8.00;3.67;;;19.50;45.90;;;;;;5068241;28;20399;-69
2022/05/13 05:34:28;;;;;;;9.33;3.77;;;19.60;46.10;;;;;;5069861;28;20434;-70
2022/05/13 05:36:54;;;;;;;8.13;3.80;;;19.70;46.10;;;;;;5068713;28;20419;-70
2022/05/13 05:39:20;;;;;;;7.60;3.40;;;19.80;46.10;;;;;;5069439;28;20176;-69
2022/05/13 05:41:46;;;;;;;6.40;3.30;;;19.80;46.10;;;;;;5069159;28;20418;-68
2022/05/13 05:44:11;;;;;;;7.47;3.47;;;19.90;44.30;;;;;;5062859;28;20172;-69
2022/05/13 05:46:37;;;;;;;8.70;3.77;;;20.00;37.30;;;;;;5051648;28;20184;-69
2022/05/13 05:49:04;;;;;;;7.80;3.70;;;19.90;39.60;;;;;;5052807;28;20215;-70
2022/05/13 05:51:29;;;;;;;11.27;3.53;;;19.90;37.90;;;;;;5068135;28;20526;-69
2022/05/13 05:59:24;;;;;;;14.57;3.70;;;20.20;30.50;;;;;;5070335;28;20402;-70
2022/05/13 06:01:50;;;;;;;7.80;3.30;;;20.30;29.70;;;;;;5068912;28;20889;-70
2022/05/13 06:04:15;;;;;;;9.10;3.20;;;20.20;31.70;;;;;;5070543;28;20433;-70
2022/05/13 06:06:41;;;;;;;13.13;4.07;;;20.30;29.20;;;;;;5051703;28;20189;-70
2022/05/13 06:09:08;;;;;;;9.40;3.57;;;20.40;29.00;;;;;;5070129;28;20314;-69
2022/05/13 06:11:34;;;;;;;6.80;3.40;;;20.40;28.30;;;;;;5069153;28;20175;-69
2022/05/13 06:14:00;;;;;;;10.00;3.77;;;20.40;27.70;;;;;;5068803;28;20403;-70
2022/05/13 06:16:27;;;;;;;6.22;3.20;;;20.40;25.80;;;;;;5067127;28;20880;-70
2022/05/13 06:18:54;;;;;;;7.50;3.03;;;20.50;25.80;;;;;;5068664;28;20164;-70
2022/05/13 06:21:20;;;;;;;8.00;3.30;;;20.40;26.20;;;;;;5067666;28;20779;-70
2022/05/13 06:23:46;;;;;;;6.53;3.23;;;20.30;26.00;;;;;;5067457;28;20419;-69
2022/05/13 06:26:11;;;;;;;8.77;3.53;;;20.20;29.80;;;;;;5069295;28;20199;-70
2022/05/13 06:28:37;;;;;;;5.90;3.50;;;20.20;28.60;;;;;;5049970;28;20738;-70
2022/05/13 06:31:02;;;;;;;10.27;3.90;;;20.10;27.30;;;;;;5067356;28;20175;-68
2022/05/13 06:33:28;;;;;;;8.53;3.90;;;20.20;28.00;;;;;;5051364;28;20260;-70
2022/05/13 06:35:54;;;;;;;14.40;4.23;;;20.20;28.20;;;;;;5069255;28;20199;-70
2022/05/13 06:38:22;;;;;;;12.50;3.80;;;20.30;27.10;;;;;;5051555;28;20207;-70
2022/05/13 06:40:53;;;;;;;10.73;4.03;;;20.50;28.60;;;;;;5051663;28;20180;-70
2022/05/13 06:43:20;;;;;;;12.80;4.00;;;20.70;26.70;;;;;;5069589;28;20422;-70
2022/05/13 06:45:46;;;;;;;7.43;3.80;;;21.00;20.00;;;;;;5050992;28;20426;-70
2022/05/13 06:48:12;;;;;;;6.93;4.27;;;21.00;22.90;;;;;;5068878;28;20454;-70
2022/05/13 06:50:38;;;;;;;12.00;3.73;;;21.10;24.50;;;;;;5067859;28;20705;-70
2022/05/13 06:53:04;;;;;;;6.50;3.40;;;21.10;24.90;;;;;;5046666;28;20177;-69
2022/05/13 06:55:30;;;;;;;9.07;3.50;;;21.20;24.90;;;;;;5063975;28;20411;-70
2022/05/13 06:57:56;;;;;;;8.17;3.60;;;21.20;22.20;;;;;;5069454;28;20723;-70
2022/05/13 07:00:22;;;;;;;6.13;3.70;;;21.10;22.10;;;;;;5067497;28;20411;-70
2022/05/13 07:02:47;;;;;;;6.30;3.60;;;21.10;21.90;;;;;;5066538;28;20202;-70
2022/05/13 07:05:15;;;;;;;7.70;3.80;;;21.20;21.30;;;;;;5067824;28;20171;-70
2022/05/13 07:07:41;;;;;;;6.00;3.47;;;21.50;20.50;;;;;;5067329;28;20201;-70
2022/05/13 07:10:09;;;;;;;9.60;4.23;;;21.70;21.10;;;;;;5068180;28;20474;-70
2022/05/13 07:12:36;;;;;;;12.70;4.20;;;21.90;18.70;;;;;;5068332;28;20402;-70
2022/05/13 07:15:03;;;;;;;10.07;4.33;;;21.90;21.00;;;;;;5068571;28;20494;-70
2022/05/13 07:17:29;;;;;;;10.83;4.20;;;21.70;12.90;;;;;;5067765;28;20757;-70
2022/05/13 07:19:55;;;;;;;10.33;4.27;;;21.80;14.90;;;;;;5068543;28;20791;-69
2022/05/13 07:22:21;;;;;;;10.90;4.30;;;22.10;13.90;;;;;;5066223;28;20533;-70
2022/05/13 07:24:47;;;;;;;13.20;4.90;;;22.40;12.10;;;;;;5068285;28;20489;-70
2022/05/13 07:27:13;;;;;;;11.60;4.20;;;22.70;11.60;;;;;;5067087;28;20533;-70
2022/05/13 07:29:39;;;;;;;12.20;4.50;;;23.00;10.60;;;;;;5050301;28;20195;-70
2022/05/13 07:32:05;;;;;;;11.63;5.00;;;23.20;7.90;;;;;;5049081;28;20171;-69
2022/05/13 07:34:30;;;;;;;9.70;4.30;;;22.90;9.40;;;;;;5068612;28;20184;-70
2022/05/13 07:36:56;;;;;;;7.00;4.27;;;23.10;4.20;;;;;;5066505;28;20681;-70
2022/05/13 07:42:09;;;;;;;9.77;3.20;;;23.50;3.30;;;;;;5063270;28;20268;-71
2022/05/13 07:44:35;;;;;;;9.80;3.37;;;23.70;1.00;;;;;;5062827;28;20789;-70
2022/05/13 07:47:02;;;;;;;10.50;2.93;;;23.70;1.00;;;;;;5065766;28;20885;-70
2022/05/13 07:49:28;;;;;;;7.90;3.30;;;23.70;1.00;;;;;;5068268;28;20552;-70
2022/05/13 07:51:53;;;;;;;7.57;3.27;;;23.70;1.00;;;;;;5065916;28;20402;-70
2022/05/13 07:54:19;;;;;;;8.60;3.40;;;23.80;1.00;;;;;;5066806;28;20168;-71
2022/05/13 07:56:44;;;;;;;5.43;3.23;;;23.60;1.00;;;;;;5067766;28;20195;-70
2022/05/13 07:59:10;;;;;;;7.57;3.70;;;23.80;1.00;;;;;;5067857;28;20425;-70
2022/05/13 08:01:36;;;;;;;7.17;3.40;;;23.80;1.00;;;;;;5065066;28;20178;-70
2022/05/13 08:04:01;;;;;;;9.53;3.40;;;24.00;1.00;;;;;;5066939;28;20497;-70
2022/05/13 08:06:27;;;;;;;6.97;3.40;;;24.10;1.00;;;;;;5049388;28;20199;-70
2022/05/13 08:08:58;;;;;;;7.27;3.30;;;24.40;1.00;;;;;;5068000;28;20214;-70
2022/05/13 08:11:29;;;;;;;9.70;3.40;;;24.50;1.00;;;;;;5066926;28;20175;-70
2022/05/13 08:13:56;;;;;;;7.43;3.10;;;24.70;1.00;;;;;;5066640;28;21166;-70
2022/05/13 08:16:25;;;;;;;7.37;2.90;;;25.00;1.00;;;;;;5048934;28;20430;-70
2022/05/13 08:18:52;;;;;;;5.30;2.97;;;24.80;1.00;;;;;;5065185;28;20526;-70
2022/05/13 08:21:18;;;;;;;11.30;3.13;;;24.50;1.00;;;;;;5066853;28;20420;-70
2022/05/13 08:23:44;;;;;;;9.50;3.70;;;24.20;1.00;;;;;;5067561;28;20461;-70
2022/05/13 08:26:11;;;;;;;7.57;3.00;;;23.90;1.00;;;;;;5067056;28;20220;-70
2022/05/13 08:28:38;;;;;;;7.87;2.80;;;23.90;1.00;;;;;;5067739;28;20537;-70
2022/05/13 08:31:04;;;;;;;10.50;3.53;;;24.40;2.20;;;;;;5066580;28;20402;-69
2022/05/13 08:33:29;;;;;;;10.23;3.47;;;24.80;1.00;;;;;;5067990;28;20449;-70
2022/05/13 08:35:58;;;;;;;6.17;3.00;;;25.60;1.00;;;;;;5065784;28;20430;-70
2022/05/13 08:38:31;;;;;;;8.27;3.53;;;26.80;1.00;;;;;;5067944;28;20202;-69
2022/05/13 08:41:04;;;;;;;6.20;2.90;;;27.20;1.00;;;;;;5081994;28;20512;-70
2022/05/13 08:43:38;;;;;;;10.73;3.00;;;28.10;1.00;;;;;;5066657;28;20429;-71
2022/05/13 08:46:16;;;;;;;6.60;3.07;;;29.10;1.00;;;;;;5065585;28;20196;-70
2022/05/13 08:49:20;;;;;;;5.25;3.00;;;30.30;1.00;;;;;;5068122;28;20191;-71
2022/05/13 08:52:02;;;;;;;4.55;2.60;;;31.40;1.00;;;;;;5066369;28;20582;-71
2022/05/13 08:54:34;;;;;;;5.57;2.40;;;32.00;1.00;;;;;;5067176;28;20212;-71
2022/05/13 08:57:05;;;;;;;13.18;2.88;;;32.80;1.00;;;;;;5045842;28;20192;-71
2022/05/13 08:59:52;;;;;;;6.43;2.55;;;33.50;1.00;;;;;;5047007;28;20173;-71
2022/05/13 09:02:26;;;;;;;5.00;2.50;;;32.70;1.00;;;;;;5044531;28;20184;-71
2022/05/13 09:05:17;;;;;;;6.20;2.67;;;32.60;1.00;;;;;;5047830;28;20534;-71
2022/05/13 09:07:44;;;;;;;5.32;2.78;;;33.10;1.00;;;;;;5046008;28;20232;-71
2022/05/13 09:10:10;;;;;;;6.38;2.40;;;33.80;1.00;;;;;;5045622;28;20271;-71
2022/05/13 09:13:01;;;;;;;6.35;2.70;;;33.60;1.00;;;;;;5046526;28;20226;-71
2022/05/13 09:15:37;;;;;;;9.07;2.40;;;32.00;1.00;;;;;;5037574;28;20187;-71
2022/05/13 09:18:14;;;;;;;7.78;2.80;;;31.20;1.00;;;;;;5066746;28;20174;-71
2022/05/13 09:21:02;;;;;;;5.68;2.58;;;30.80;1.00;;;;;;5069226;28;20684;-71
2022/05/13 09:23:28;;;;;;;9.30;3.13;;;31.50;1.00;;;;;;5069938;28;20168;-70
2022/05/13 09:26:03;;;;;;;5.82;2.47;;;32.10;1.00;;;;;;5070379;28;20187;-71
2022/05/13 09:28:31;;;;;;;5.35;2.58;;;31.80;1.00;;;;;;5071321;28;20290;-71
2022/05/13 09:31:06;;;;;;;6.10;2.75;;;31.10;1.00;;;;;;5061461;28;20180;-71
2022/05/13 09:33:38;;;;;;;7.40;2.90;;;31.00;1.00;;;;;;5070892;28;20215;-71
2022/05/13 09:36:16;;;;;;;5.88;2.63;;;31.30;1.00;;;;;;5050297;28;20180;-71
2022/05/13 09:38:46;;;;;;;5.60;2.50;;;32.40;1.00;;;;;;5051406;28;20176;-71
2022/05/13 09:41:13;;;;;;;6.85;2.50;;;32.80;1.00;;;;;;5050088;28;20585;-71
2022/05/13 09:43:57;;;;;;;7.88;2.95;;;33.80;1.00;;;;;;5064766;28;20239;-71
2022/05/13 09:46:34;;;;;;;5.30;2.38;;;33.70;1.00;;;;;;5068310;28;20204;-71
2022/05/13 09:49:20;;;;;;;7.05;2.47;;;33.40;1.00;;;;;;5071206;28;20314;-71
2022/05/13 09:52:07;;;;;;;5.10;2.30;;;33.90;1.00;;;;;;5069769;28;20266;-71
2022/05/13 09:54:38;;;;;;;6.65;2.40;;;35.30;1.00;;;;;;5070069;28;20156;-71
2022/05/13 09:57:11;;;;;;;6.65;2.83;;;35.80;1.00;;;;;;5068793;28;20214;-71
2022/05/13 10:00:14;;;;;;;7.97;2.47;;;36.20;1.00;;;;;;5070808;28;20164;-71
2022/05/13 10:02:42;;;;;;;5.05;2.20;;;36.60;1.00;;;;;;5065959;28;20183;-71
2022/05/13 10:05:34;;;;;;;5.63;2.22;;;35.40;1.00;;;;;;5069763;28;20199;-72
2022/05/13 10:08:09;;;;;;;5.07;2.45;;;34.30;1.00;;;;;;5070661;28;20168;-71
2022/05/13 10:16:44;;;;;;;4.53;2.42;;;31.70;1.00;;;;;;5068359;28;20210;-70
2022/05/13 10:19:18;;;;;;;7.13;2.10;;;32.20;1.00;;;;;;5063338;28;20676;-71
2022/05/13 10:21:57;;;;;;;5.38;2.28;;;33.50;1.00;;;;;;5067933;28;20312;-70
2022/05/13 10:24:47;;;;;;;6.95;2.10;;;34.00;1.00;;;;;;5069474;28;20163;-70
2022/05/13 10:27:37;;;;;;;8.07;2.80;;;35.10;1.00;;;;;;5050188;28;20196;-70
2022/05/13 10:30:07;;;;;;;6.95;2.58;;;34.60;1.00;;;;;;5069880;28;20646;-70
2022/05/13 10:32:48;;;;;;;5.80;2.20;;;35.40;1.00;;;;;;5067221;28;20645;-71
2022/05/13 10:35:19;;;;;;;5.30;2.40;;;36.70;1.00;;;;;;5069091;28;20175;-71
2022/05/13 10:38:01;;;;;;;5.07;1.98;;;36.90;1.00;;;;;;5069743;28;20215;-71
2022/05/13 10:40:33;;;;;;;4.65;2.10;;;36.30;1.00;;;;;;5069304;28;20175;-71
2022/05/13 10:43:09;;;;;;;4.72;2.30;;;35.50;1.00;;;;;;5068530;28;20175;-71
2022/05/13 10:45:37;;;;;;;4.88;2.20;;;37.70;1.00;;;;;;5068550;28;20171;-70
2022/05/13 10:48:02;;;;;;;7.65;2.03;;;37.70;1.00;;;;;;5068986;28;20557;-71
2022/05/13 10:50:49;;;;;;;5.30;1.98;;;38.20;1.00;;;;;;5069024;28;20251;-71
2022/05/13 10:53:48;;;;;;;9.02;2.08;;;37.30;1.00;;;;;;5067114;28;20594;-71
2022/05/13 10:56:32;;;;;;;6.78;2.10;;;35.30;1.00;;;;;;5061020;28;20241;-71
2022/05/13 10:59:10;;;;;;;7.47;2.00;;;33.60;1.00;;;;;;5069363;28;20288;-71
2022/05/13 11:01:49;;;;;;;6.28;2.00;;;33.20;1.00;;;;;;5066942;28;20224;-70
2022/05/13 11:04:32;;;;;;;5.22;2.08;;;33.60;1.00;;;;;;5069554;28;20178;-71
2022/05/13 11:07:25;;;;;;;5.43;2.30;;;33.50;1.00;;;;;;5068408;28;20188;-71
2022/05/13 11:10:03;;;;;;;4.07;1.77;;;34.40;1.00;;;;;;5067832;28;20653;-70
2022/05/13 11:13:08;;;;;;;5.45;2.05;;;35.60;1.00;;;;;;5066949;28;20229;-71
2022/05/13 11:15:47;;;;;;;4.28;2.05;;;37.00;1.00;;;;;;5068714;28;20164;-70
2022/05/13 11:18:25;;;;;;;4.15;1.92;;;36.90;1.00;;;;;;5068422;28;20614;-71
2022/05/13 11:21:36;;;;;;;4.38;2.00;;;35.50;1.00;;;;;;5066753;28;20179;-71
2022/05/13 11:27:43;;;;;;;3.75;1.80;;;36.70;1.00;;;;;;5068357;28;20191;-71
2022/05/13 11:30:35;;;;;;;6.38;2.10;;;36.40;1.00;;;;;;5068401;28;20229;-71
2022/05/13 11:33:44;;;;;;;5.05;2.25;;;37.30;1.00;;;;;;5032493;28;20180;-71
2022/05/13 11:36:16;;;;;;;6.45;2.00;;;35.80;1.00;;;;;;5047361;28;20206;-71
2022/05/13 11:39:24;;;;;;;3.17;1.80;;;34.30;1.00;;;;;;5067212;28;20176;-71
2022/05/13 11:41:56;;;;;;;4.53;2.10;;;32.50;1.00;;;;;;5066311;28;20168;-70
2022/05/13 11:44:43;;;;;;;4.03;2.10;;;30.90;1.00;;;;;;5068635;28;20266;-71
2022/05/13 11:47:44;;;;;;;4.75;2.17;;;30.80;1.00;;;;;;5029286;28;20192;-71
2022/05/13 11:50:11;;;;;;;4.32;2.05;;;32.30;1.00;;;;;;5039695;28;20223;-71
2022/05/13 11:52:40;;;;;;;5.68;2.08;;;32.70;1.00;;;;;;5047508;28;20188;-71
2022/05/13 11:55:41;;;;;;;8.48;2.10;;;33.10;1.00;;;;;;5048385;28;20549;-71
2022/05/13 11:58:08;;;;;;;7.68;2.00;;;33.30;1.00;;;;;;5048185;28;20348;-70
2022/05/13 12:00:37;;;;;;;4.10;1.75;;;32.90;1.00;;;;;;5047189;28;20653;-71
2022/05/13 12:03:02;;;;;;;5.53;2.28;;;32.20;1.00;;;;;;5045720;28;20181;-71
2022/05/13 12:05:31;;;;;;;4.22;1.92;;;32.10;1.00;;;;;;5047631;28;20222;-70
2022/05/13 12:08:00;;;;;;;3.67;2.05;;;33.40;1.00;;;;;;5048669;28;20187;-71
2022/05/13 12:10:44;;;;;;;4.70;2.13;;;35.30;1.00;;;;;;5047975;28;20177;-70
2022/05/13 12:13:32;;;;;;;7.75;2.00;;;36.20;1.00;;;;;;5046204;28;20478;-71
2022/05/13 12:16:04;;;;;;;4.05;1.75;;;36.80;1.00;;;;;;5047340;28;20600;-70
2022/05/13 12:18:52;;;;;;;5.03;2.00;;;36.90;1.00;;;;;;5063077;28;20618;-71
2022/05/13 12:21:41;;;;;;;5.25;1.90;;;36.90;1.00;;;;;;5028917;28;20176;-71
2022/05/13 12:24:10;;;;;;;3.67;1.65;;;37.60;1.00;;;;;;5065969;28;20191;-71
2022/05/13 12:27:07;;;;;;;3.88;1.90;;;38.20;1.00;;;;;;5067334;28;20188;-71
2022/05/13 12:30:00;;;;;;;3.65;1.88;;;37.30;1.00;;;;;;5082619;28;20207;-71
2022/05/13 12:32:56;;;;;;;5.13;2.00;;;37.40;1.00;;;;;;5064949;28;20561;-71
2022/05/13 12:38:22;;;;;;;6.93;1.70;;;38.00;1.00;;;;;;5068248;28;20233;-72
2022/05/13 12:40:59;;;;;;;3.88;1.80;;;37.90;1.00;;;;;;5066287;28;20176;-70
2022/05/13 12:43:54;;;;;;;3.10;1.70;;;37.90;1.00;;;;;;5067330;28;20251;-71
2022/05/13 12:46:51;;;;;;;5.03;2.00;;;38.50;1.00;;;;;;5067228;28;20207;-71
2022/05/13 12:49:38;;;;;;;7.25;1.92;;;37.90;1.00;;;;;;5067952;28;20196;-71
2022/05/13 12:52:16;;;;;;;4.15;1.88;;;37.50;1.00;;;;;;5082401;28;20237;-71
2022/05/13 12:54:47;;;;;;;4.40;1.50;;;37.40;1.00;;;;;;5069961;28;20581;-70
2022/05/13 12:57:18;;;;;;;7.03;2.10;;;36.90;1.00;;;;;;5071682;28;20241;-71
2022/05/13 12:59:50;;;;;;;3.10;1.50;;;37.30;1.00;;;;;;5053666;28;20212;-71
2022/05/13 13:02:15;;;;;;;3.60;1.60;;;36.90;1.00;;;;;;5068855;28;20270;-70
2022/05/13 13:04:52;;;;;;;6.95;1.80;;;36.90;1.00;;;;;;5054104;28;20187;-71
2022/05/13 13:07:20;;;;;;;5.25;1.90;;;37.20;1.00;;;;;;5053602;28;20191;-71
2022/05/13 13:09:49;;;;;;;4.70;1.73;;;37.50;1.00;;;;;;5070079;28;20233;-71
2022/05/13 13:12:33;;;;;;;6.75;1.98;;;37.80;1.00;;;;;;5069300;28;20496;-71
2022/05/13 13:15:17;;;;;;;3.53;1.67;;;36.70;1.00;;;;;;5071732;28;20338;-71
2022/05/13 13:17:57;;;;;;;7.13;1.60;;;36.40;1.00;;;;;;5070026;28;20294;-71
2022/05/13 13:20:25;;;;;;;6.22;1.80;;;36.80;1.00;;;;;;5051045;28;20168;-71
2022/05/13 13:23:04;;;;;;;2.80;1.48;;;37.50;1.00;;;;;;5048971;28;20639;-72
2022/05/13 13:25:32;;;;;;;5.05;1.75;;;37.60;1.00;;;;;;5051140;28;20173;-71
2022/05/13 13:28:09;;;;;;;3.72;1.50;;;38.00;1.00;;;;;;5050980;28;20701;-71
2022/05/13 13:30:36;;;;;;;4.03;1.77;;;37.50;1.00;;;;;;5049315;28;20180;-71
2022/05/13 13:33:06;;;;;;;5.30;1.80;;;37.80;1.00;;;;;;5031490;28;20451;-71
2022/05/13 13:35:34;;;;;;;13.70;1.90;;;37.30;1.00;;;;;;5050902;28;20223;-71
2022/05/13 13:38:01;;;;;;;4.95;1.70;;;37.30;1.00;;;;;;5051241;28;20195;-71
2022/05/13 13:40:33;;;;;;;5.18;2.10;;;37.10;1.00;;;;;;5049533;28;20218;-71
2022/05/13 13:43:24;;;;;;;3.75;1.50;;;38.00;1.00;;;;;;5051822;28;20191;-71
2022/05/13 13:45:53;;;;;;;3.25;1.58;;;37.30;1.00;;;;;;5068463;28;20184;-70